sensor_id;sensor_type;location;lat;lon;timestamp;P1;durP1;ratioP1;P2;durP2;ratioP2
56794;SDS011;42678;59.400;18.410;2022-12-10T00:00:33;8.07;;;4.60;;
56794;SDS011;42678;59.400;18.410;2022-12-10T00:03:00;7.97;;;4.73;;
56794;SDS011;42678;59.400;18.410;2022-12-10T00:05:26;10.90;;;5.67;;
56794;SDS011;42678;59.400;18.410;2022-12-10T00:07:52;9.07;;;5.50;;
56794;SDS011;42678;59.400;18.410;2022-12-10T00:10:17;7.30;;;3.97;;
56794;SDS011;42678;59.400;18.410;2022-12-10T00:12:43;11.17;;;5.27;;
56794;SDS011;42678;59.400;18.410;2022-12-10T00:15:08;8.97;;;5.43;;
56794;SDS011;42678;59.400;18.410;2022-12-10T00:17:36;10.20;;;6.07;;
56794;SDS011;42678;59.400;18.410;2022-12-10T00:20:01;9.93;;;5.10;;
56794;SDS011;42678;59.400;18.410;2022-12-10T00:22:27;11.00;;;5.17;;
56794;SDS011;42678;59.400;18.410;2022-12-10T00:24:53;10.63;;;5.27;;
56794;SDS011;42678;59.400;18.410;2022-12-10T00:27:18;7.90;;;4.67;;
56794;SDS011;42678;59.400;18.410;2022-12-10T00:29:44;9.70;;;4.83;;
56794;SDS011;42678;59.400;18.410;2022-12-10T00:32:09;10.17;;;4.90;;
56794;SDS011;42678;59.400;18.410;2022-12-10T00:34:36;9.13;;;5.30;;
56794;SDS011;42678;59.400;18.410;2022-12-10T00:37:01;8.20;;;4.47;;
56794;SDS011;42678;59.400;18.410;2022-12-10T00:39:28;9.57;;;6.13;;
56794;SDS011;42678;59.400;18.410;2022-12-10T00:41:54;8.50;;;4.53;;
56794;SDS011;42678;59.400;18.410;2022-12-10T00:44:20;8.53;;;4.17;;
56794;SDS011;42678;59.400;18.410;2022-12-10T00:46:45;8.73;;;4.20;;
56794;SDS011;42678;59.400;18.410;2022-12-10T00:49:11;6.57;;;3.83;;
56794;SDS011;42678;59.400;18.410;2022-12-10T00:51:36;10.20;;;4.87;;
56794;SDS011;42678;59.400;18.410;2022-12-10T00:54:02;7.67;;;3.77;;
56794;SDS011;42678;59.400;18.410;2022-12-10T00:56:28;9.37;;;4.87;;
56794;SDS011;42678;59.400;18.410;2022-12-10T00:58:55;6.17;;;3.97;;
56794;SDS011;42678;59.400;18.410;2022-12-10T01:01:29;7.60;;;4.20;;
56794;SDS011;42678;59.400;18.410;2022-12-10T01:03:58;7.67;;;4.27;;
56794;SDS011;42678;59.400;18.410;2022-12-10T01:06:25;8.50;;;4.60;;
56794;SDS011;42678;59.400;18.410;2022-12-10T01:08:51;7.73;;;4.30;;
56794;SDS011;42678;59.400;18.410;2022-12-10T01:11:18;10.50;;;5.13;;
56794;SDS011;42678;59.400;18.410;2022-12-10T01:13:45;10.53;;;6.10;;
56794;SDS011;42678;59.400;18.410;2022-12-10T01:16:12;9.47;;;5.47;;
56794;SDS011;42678;59.400;18.410;2022-12-10T01:18:38;10.10;;;4.83;;
56794;SDS011;42678;59.400;18.410;2022-12-10T01:21:05;12.67;;;5.80;;
56794;SDS011;42678;59.400;18.410;2022-12-10T01:23:35;11.00;;;4.43;;
56794;SDS011;42678;59.400;18.410;2022-12-10T01:26:05;10.97;;;5.37;;
56794;SDS011;42678;59.400;18.410;2022-12-10T01:28:31;13.17;;;5.60;;
56794;SDS011;42678;59.400;18.410;2022-12-10T01:31:09;10.27;;;5.17;;
56794;SDS011;42678;59.400;18.410;2022-12-10T01:33:37;9.10;;;4.93;;
56794;SDS011;42678;59.400;18.410;2022-12-10T01:36:04;7.97;;;4.40;;
56794;SDS011;42678;59.400;18.410;2022-12-10T01:38:30;9.07;;;5.27;;
56794;SDS011;42678;59.400;18.410;2022-12-10T01:40:55;8.47;;;5.17;;
56794;SDS011;42678;59.400;18.410;2022-12-10T01:43:21;6.47;;;4.10;;
56794;SDS011;42678;59.400;18.410;2022-12-10T01:45:48;8.33;;;4.10;;
56794;SDS011;42678;59.400;18.410;2022-12-10T01:48:14;7.03;;;4.23;;
56794;SDS011;42678;59.400;18.410;2022-12-10T01:50:39;6.33;;;4.20;;
56794;SDS011;42678;59.400;18.410;2022-12-10T01:53:05;6.63;;;4.10;;
56794;SDS011;42678;59.400;18.410;2022-12-10T01:55:40;8.10;;;3.80;;
56794;SDS011;42678;59.400;18.410;2022-12-10T02:00:32;7.03;;;4.27;;
56794;SDS011;42678;59.400;18.410;2022-12-10T02:03:00;9.27;;;4.97;;
56794;SDS011;42678;59.400;18.410;2022-12-10T02:05:39;8.33;;;4.53;;
56794;SDS011;42678;59.400;18.410;2022-12-10T02:10:49;7.40;;;4.40;;
56794;SDS011;42678;59.400;18.410;2022-12-10T02:13:27;6.07;;;3.40;;
56794;SDS011;42678;59.400;18.410;2022-12-10T02:18:36;6.57;;;3.50;;
56794;SDS011;42678;59.400;18.410;2022-12-10T02:21:36;5.97;;;3.50;;
56794;SDS011;42678;59.400;18.410;2022-12-10T02:23:57;6.30;;;3.07;;
56794;SDS011;42678;59.400;18.410;2022-12-10T02:31:19;4.57;;;2.50;;
56794;SDS011;42678;59.400;18.410;2022-12-10T02:33:47;4.60;;;3.27;;
56794;SDS011;42678;59.400;18.410;2022-12-10T02:36:14;5.27;;;2.60;;
56794;SDS011;42678;59.400;18.410;2022-12-10T02:38:40;5.17;;;3.00;;
56794;SDS011;42678;59.400;18.410;2022-12-10T02:41:07;5.77;;;3.10;;
56794;SDS011;42678;59.400;18.410;2022-12-10T02:43:34;5.50;;;3.20;;
56794;SDS011;42678;59.400;18.410;2022-12-10T02:46:00;6.03;;;3.97;;
56794;SDS011;42678;59.400;18.410;2022-12-10T02:48:27;4.10;;;2.57;;
56794;SDS011;42678;59.400;18.410;2022-12-10T02:50:53;5.27;;;3.40;;
56794;SDS011;42678;59.400;18.410;2022-12-10T02:53:18;5.57;;;3.60;;
56794;SDS011;42678;59.400;18.410;2022-12-10T02:58:15;4.63;;;3.30;;
56794;SDS011;42678;59.400;18.410;2022-12-10T03:00:57;5.30;;;3.22;;
56794;SDS011;42678;59.400;18.410;2022-12-10T03:03:48;6.03;;;3.93;;
56794;SDS011;42678;59.400;18.410;2022-12-10T03:08:47;6.70;;;3.67;;
56794;SDS011;42678;59.400;18.410;2022-12-10T03:11:22;4.70;;;3.23;;
56794;SDS011;42678;59.400;18.410;2022-12-10T03:16:23;8.33;;;4.10;;
56794;SDS011;42678;59.400;18.410;2022-12-10T03:18:50;6.17;;;3.83;;
56794;SDS011;42678;59.400;18.410;2022-12-10T03:21:17;5.27;;;3.47;;
56794;SDS011;42678;59.400;18.410;2022-12-10T03:23:44;6.20;;;3.70;;
56794;SDS011;42678;59.400;18.410;2022-12-10T03:26:11;6.10;;;4.43;;
56794;SDS011;42678;59.400;18.410;2022-12-10T03:28:45;4.93;;;3.50;;
56794;SDS011;42678;59.400;18.410;2022-12-10T03:31:12;5.67;;;3.60;;
56794;SDS011;42678;59.400;18.410;2022-12-10T03:33:38;5.80;;;3.47;;
56794;SDS011;42678;59.400;18.410;2022-12-10T03:36:04;4.97;;;3.00;;
56794;SDS011;42678;59.400;18.410;2022-12-10T03:38:30;5.63;;;3.07;;
56794;SDS011;42678;59.400;18.410;2022-12-10T03:40:56;5.03;;;3.50;;
56794;SDS011;42678;59.400;18.410;2022-12-10T03:43:21;5.80;;;3.43;;
56794;SDS011;42678;59.400;18.410;2022-12-10T03:45:47;5.93;;;2.90;;
56794;SDS011;42678;59.400;18.410;2022-12-10T03:48:12;4.40;;;3.17;;
56794;SDS011;42678;59.400;18.410;2022-12-10T03:50:38;4.10;;;3.40;;
56794;SDS011;42678;59.400;18.410;2022-12-10T03:53:04;3.93;;;3.20;;
56794;SDS011;42678;59.400;18.410;2022-12-10T03:55:29;3.77;;;2.83;;
56794;SDS011;42678;59.400;18.410;2022-12-10T03:57:56;3.93;;;2.87;;
56794;SDS011;42678;59.400;18.410;2022-12-10T04:00:22;5.43;;;2.60;;
56794;SDS011;42678;59.400;18.410;2022-12-10T04:02:47;4.23;;;2.90;;
56794;SDS011;42678;59.400;18.410;2022-12-10T04:05:14;5.27;;;3.03;;
56794;SDS011;42678;59.400;18.410;2022-12-10T04:07:39;3.40;;;2.57;;
56794;SDS011;42678;59.400;18.410;2022-12-10T04:10:05;4.13;;;2.80;;
56794;SDS011;42678;59.400;18.410;2022-12-10T04:12:30;5.27;;;2.93;;
56794;SDS011;42678;59.400;18.410;2022-12-10T04:14:55;4.27;;;2.83;;
56794;SDS011;42678;59.400;18.410;2022-12-10T04:17:40;4.37;;;2.10;;
56794;SDS011;42678;59.400;18.410;2022-12-10T04:20:07;3.67;;;2.17;;
56794;SDS011;42678;59.400;18.410;2022-12-10T04:22:52;3.67;;;2.57;;
56794;SDS011;42678;59.400;18.410;2022-12-10T04:25:36;2.60;;;2.10;;
56794;SDS011;42678;59.400;18.410;2022-12-10T04:28:20;5.83;;;2.83;;
56794;SDS011;42678;59.400;18.410;2022-12-10T04:30:46;3.90;;;2.73;;
56794;SDS011;42678;59.400;18.410;2022-12-10T04:33:11;3.87;;;2.60;;
56794;SDS011;42678;59.400;18.410;2022-12-10T04:35:36;3.00;;;2.23;;
56794;SDS011;42678;59.400;18.410;2022-12-10T04:38:02;2.73;;;2.30;;
56794;SDS011;42678;59.400;18.410;2022-12-10T04:40:27;3.20;;;2.60;;
56794;SDS011;42678;59.400;18.410;2022-12-10T04:42:52;4.23;;;2.47;;
56794;SDS011;42678;59.400;18.410;2022-12-10T04:45:18;3.37;;;2.30;;
56794;SDS011;42678;59.400;18.410;2022-12-10T04:47:43;3.83;;;2.43;;
56794;SDS011;42678;59.400;18.410;2022-12-10T04:50:08;4.57;;;2.73;;
56794;SDS011;42678;59.400;18.410;2022-12-10T04:52:34;3.47;;;2.30;;
56794;SDS011;42678;59.400;18.410;2022-12-10T04:54:59;3.03;;;2.17;;
56794;SDS011;42678;59.400;18.410;2022-12-10T04:57:25;2.73;;;1.87;;
56794;SDS011;42678;59.400;18.410;2022-12-10T04:59:50;4.10;;;2.50;;
56794;SDS011;42678;59.400;18.410;2022-12-10T05:02:16;2.60;;;2.27;;
56794;SDS011;42678;59.400;18.410;2022-12-10T05:04:41;3.20;;;2.20;;
56794;SDS011;42678;59.400;18.410;2022-12-10T05:07:06;3.40;;;2.03;;
56794;SDS011;42678;59.400;18.410;2022-12-10T05:09:32;2.47;;;2.07;;
56794;SDS011;42678;59.400;18.410;2022-12-10T05:11:57;2.57;;;2.20;;
56794;SDS011;42678;59.400;18.410;2022-12-10T05:14:25;3.03;;;2.03;;
56794;SDS011;42678;59.400;18.410;2022-12-10T05:16:50;2.37;;;1.70;;
56794;SDS011;42678;59.400;18.410;2022-12-10T05:19:16;3.80;;;2.50;;
56794;SDS011;42678;59.400;18.410;2022-12-10T05:21:44;3.50;;;2.00;;
56794;SDS011;42678;59.400;18.410;2022-12-10T05:24:28;2.30;;;1.60;;
56794;SDS011;42678;59.400;18.410;2022-12-10T05:26:54;2.57;;;1.97;;
56794;SDS011;42678;59.400;18.410;2022-12-10T05:29:21;2.47;;;2.03;;
56794;SDS011;42678;59.400;18.410;2022-12-10T05:31:47;3.17;;;1.90;;
56794;SDS011;42678;59.400;18.410;2022-12-10T05:34:12;2.60;;;1.90;;
56794;SDS011;42678;59.400;18.410;2022-12-10T05:36:37;2.70;;;2.00;;
56794;SDS011;42678;59.400;18.410;2022-12-10T05:39:03;2.40;;;1.70;;
56794;SDS011;42678;59.400;18.410;2022-12-10T05:41:30;1.80;;;1.60;;
56794;SDS011;42678;59.400;18.410;2022-12-10T05:43:56;2.20;;;1.70;;
56794;SDS011;42678;59.400;18.410;2022-12-10T05:46:22;3.27;;;1.70;;
56794;SDS011;42678;59.400;18.410;2022-12-10T05:48:49;2.80;;;2.10;;
56794;SDS011;42678;59.400;18.410;2022-12-10T05:51:16;3.40;;;1.93;;
56794;SDS011;42678;59.400;18.410;2022-12-10T05:53:42;3.10;;;2.07;;
56794;SDS011;42678;59.400;18.410;2022-12-10T05:56:12;2.73;;;1.87;;
56794;SDS011;42678;59.400;18.410;2022-12-10T05:58:40;3.07;;;1.90;;
56794;SDS011;42678;59.400;18.410;2022-12-10T06:01:10;4.57;;;1.90;;
56794;SDS011;42678;59.400;18.410;2022-12-10T06:03:36;2.70;;;1.93;;
56794;SDS011;42678;59.400;18.410;2022-12-10T06:06:02;2.93;;;2.10;;
56794;SDS011;42678;59.400;18.410;2022-12-10T06:08:27;3.50;;;2.30;;
56794;SDS011;42678;59.400;18.410;2022-12-10T06:10:54;2.47;;;2.20;;
56794;SDS011;42678;59.400;18.410;2022-12-10T06:13:20;3.70;;;2.50;;
56794;SDS011;42678;59.400;18.410;2022-12-10T06:15:46;3.97;;;2.70;;
56794;SDS011;42678;59.400;18.410;2022-12-10T06:18:11;3.97;;;2.40;;
56794;SDS011;42678;59.400;18.410;2022-12-10T06:20:37;3.63;;;2.27;;
56794;SDS011;42678;59.400;18.410;2022-12-10T06:23:03;4.93;;;2.50;;
56794;SDS011;42678;59.400;18.410;2022-12-10T06:25:28;2.80;;;2.30;;
56794;SDS011;42678;59.400;18.410;2022-12-10T06:27:53;3.47;;;2.23;;
56794;SDS011;42678;59.400;18.410;2022-12-10T06:30:19;2.93;;;2.10;;
56794;SDS011;42678;59.400;18.410;2022-12-10T06:32:44;3.33;;;2.63;;
56794;SDS011;42678;59.400;18.410;2022-12-10T06:35:10;3.83;;;2.77;;
56794;SDS011;42678;59.400;18.410;2022-12-10T06:37:35;3.97;;;2.60;;
56794;SDS011;42678;59.400;18.410;2022-12-10T06:42:29;5.47;;;2.80;;
56794;SDS011;42678;59.400;18.410;2022-12-10T06:44:57;4.07;;;2.17;;
56794;SDS011;42678;59.400;18.410;2022-12-10T06:47:22;6.87;;;3.23;;
56794;SDS011;42678;59.400;18.410;2022-12-10T06:49:49;3.80;;;2.70;;
56794;SDS011;42678;59.400;18.410;2022-12-10T06:52:15;2.77;;;1.87;;
56794;SDS011;42678;59.400;18.410;2022-12-10T06:54:40;3.70;;;2.03;;
56794;SDS011;42678;59.400;18.410;2022-12-10T06:57:06;3.10;;;1.90;;
56794;SDS011;42678;59.400;18.410;2022-12-10T06:59:31;2.70;;;1.73;;
56794;SDS011;42678;59.400;18.410;2022-12-10T07:01:58;3.03;;;2.10;;
56794;SDS011;42678;59.400;18.410;2022-12-10T07:04:23;2.57;;;1.90;;
56794;SDS011;42678;59.400;18.410;2022-12-10T07:06:49;7.27;;;3.30;;
56794;SDS011;42678;59.400;18.410;2022-12-10T07:09:14;3.93;;;3.00;;
56794;SDS011;42678;59.400;18.410;2022-12-10T07:11:41;4.77;;;2.83;;
56794;SDS011;42678;59.400;18.410;2022-12-10T07:14:06;5.77;;;3.17;;
56794;SDS011;42678;59.400;18.410;2022-12-10T07:16:32;5.43;;;3.20;;
56794;SDS011;42678;59.400;18.410;2022-12-10T07:19:00;4.67;;;2.77;;
56794;SDS011;42678;59.400;18.410;2022-12-10T07:21:27;5.50;;;2.80;;
56794;SDS011;42678;59.400;18.410;2022-12-10T07:23:54;4.83;;;2.83;;
56794;SDS011;42678;59.400;18.410;2022-12-10T07:26:21;3.33;;;2.50;;
56794;SDS011;42678;59.400;18.410;2022-12-10T07:28:46;5.30;;;2.90;;
56794;SDS011;42678;59.400;18.410;2022-12-10T07:31:12;4.10;;;2.60;;
56794;SDS011;42678;59.400;18.410;2022-12-10T07:33:37;3.60;;;2.10;;
56794;SDS011;42678;59.400;18.410;2022-12-10T07:36:06;3.87;;;2.40;;
56794;SDS011;42678;59.400;18.410;2022-12-10T07:38:33;4.20;;;2.47;;
56794;SDS011;42678;59.400;18.410;2022-12-10T07:41:01;4.20;;;1.93;;
56794;SDS011;42678;59.400;18.410;2022-12-10T07:43:27;7.27;;;3.00;;
56794;SDS011;42678;59.400;18.410;2022-12-10T07:45:53;3.93;;;2.80;;
56794;SDS011;42678;59.400;18.410;2022-12-10T07:48:18;4.17;;;1.70;;
56794;SDS011;42678;59.400;18.410;2022-12-10T07:50:44;3.33;;;2.40;;
56794;SDS011;42678;59.400;18.410;2022-12-10T07:53:09;6.87;;;2.83;;
56794;SDS011;42678;59.400;18.410;2022-12-10T07:55:34;3.63;;;2.83;;
56794;SDS011;42678;59.400;18.410;2022-12-10T07:58:00;4.23;;;2.30;;
56794;SDS011;42678;59.400;18.410;2022-12-10T08:00:25;5.33;;;2.53;;
56794;SDS011;42678;59.400;18.410;2022-12-10T08:02:51;4.80;;;2.90;;
56794;SDS011;42678;59.400;18.410;2022-12-10T08:05:16;4.93;;;2.83;;
56794;SDS011;42678;59.400;18.410;2022-12-10T08:07:42;4.50;;;2.70;;
56794;SDS011;42678;59.400;18.410;2022-12-10T08:10:07;4.27;;;2.63;;
56794;SDS011;42678;59.400;18.410;2022-12-10T08:12:32;4.70;;;2.90;;
56794;SDS011;42678;59.400;18.410;2022-12-10T08:14:58;4.23;;;3.03;;
56794;SDS011;42678;59.400;18.410;2022-12-10T08:17:23;4.40;;;2.30;;
56794;SDS011;42678;59.400;18.410;2022-12-10T08:19:49;2.87;;;2.30;;
56794;SDS011;42678;59.400;18.410;2022-12-10T08:22:15;4.77;;;3.10;;
56794;SDS011;42678;59.400;18.410;2022-12-10T08:24:41;5.30;;;2.43;;
56794;SDS011;42678;59.400;18.410;2022-12-10T08:27:06;4.03;;;2.87;;
56794;SDS011;42678;59.400;18.410;2022-12-10T08:29:32;4.77;;;2.93;;
56794;SDS011;42678;59.400;18.410;2022-12-10T08:31:57;4.60;;;2.70;;
56794;SDS011;42678;59.400;18.410;2022-12-10T08:34:24;4.23;;;2.87;;
56794;SDS011;42678;59.400;18.410;2022-12-10T08:36:50;4.20;;;2.63;;
56794;SDS011;42678;59.400;18.410;2022-12-10T08:39:16;4.67;;;2.63;;
56794;SDS011;42678;59.400;18.410;2022-12-10T08:41:45;3.77;;;2.37;;
56794;SDS011;42678;59.400;18.410;2022-12-10T08:44:12;4.60;;;3.20;;
56794;SDS011;42678;59.400;18.410;2022-12-10T08:46:37;6.17;;;3.30;;
56794;SDS011;42678;59.400;18.410;2022-12-10T08:49:05;5.30;;;3.20;;
56794;SDS011;42678;59.400;18.410;2022-12-10T08:51:31;4.00;;;2.80;;
56794;SDS011;42678;59.400;18.410;2022-12-10T08:53:59;5.33;;;2.50;;
56794;SDS011;42678;59.400;18.410;2022-12-10T08:56:24;5.03;;;2.80;;
56794;SDS011;42678;59.400;18.410;2022-12-10T08:58:50;6.63;;;3.30;;
56794;SDS011;42678;59.400;18.410;2022-12-10T09:01:16;4.90;;;3.20;;
56794;SDS011;42678;59.400;18.410;2022-12-10T09:03:42;4.57;;;2.80;;
56794;SDS011;42678;59.400;18.410;2022-12-10T09:06:12;7.80;;;3.40;;
56794;SDS011;42678;59.400;18.410;2022-12-10T09:08:37;5.73;;;3.53;;
56794;SDS011;42678;59.400;18.410;2022-12-10T09:13:31;5.97;;;3.07;;
56794;SDS011;42678;59.400;18.410;2022-12-10T09:15:57;5.27;;;2.70;;
56794;SDS011;42678;59.400;18.410;2022-12-10T09:18:22;4.77;;;2.83;;
56794;SDS011;42678;59.400;18.410;2022-12-10T09:20:49;5.43;;;2.67;;
56794;SDS011;42678;59.400;18.410;2022-12-10T09:23:14;4.97;;;3.37;;
56794;SDS011;42678;59.400;18.410;2022-12-10T09:25:39;7.67;;;3.40;;
56794;SDS011;42678;59.400;18.410;2022-12-10T09:28:05;4.80;;;3.00;;
56794;SDS011;42678;59.400;18.410;2022-12-10T09:30:30;7.60;;;2.83;;
56794;SDS011;42678;59.400;18.410;2022-12-10T09:32:56;5.47;;;3.20;;
56794;SDS011;42678;59.400;18.410;2022-12-10T09:35:21;5.60;;;3.00;;
56794;SDS011;42678;59.400;18.410;2022-12-10T09:37:46;6.60;;;3.00;;
56794;SDS011;42678;59.400;18.410;2022-12-10T09:40:15;9.03;;;3.90;;
56794;SDS011;42678;59.400;18.410;2022-12-10T09:42:50;5.90;;;3.50;;
56794;SDS011;42678;59.400;18.410;2022-12-10T09:45:26;7.87;;;4.03;;
56794;SDS011;42678;59.400;18.410;2022-12-10T09:50:28;7.80;;;3.70;;
56794;SDS011;42678;59.400;18.410;2022-12-10T09:52:54;4.80;;;3.17;;
56794;SDS011;42678;59.400;18.410;2022-12-10T09:55:26;9.47;;;3.70;;
56794;SDS011;42678;59.400;18.410;2022-12-10T09:57:53;6.50;;;2.80;;
56794;SDS011;42678;59.400;18.410;2022-12-10T10:00:23;6.13;;;3.43;;
56794;SDS011;42678;59.400;18.410;2022-12-10T10:02:51;8.07;;;3.90;;
56794;SDS011;42678;59.400;18.410;2022-12-10T10:05:21;5.50;;;3.67;;
56794;SDS011;42678;59.400;18.410;2022-12-10T10:07:48;7.03;;;3.83;;
56794;SDS011;42678;59.400;18.410;2022-12-10T10:10:23;5.17;;;3.17;;
56794;SDS011;42678;59.400;18.410;2022-12-10T10:12:53;5.90;;;3.50;;
56794;SDS011;42678;59.400;18.410;2022-12-10T10:15:22;5.93;;;3.37;;
56794;SDS011;42678;59.400;18.410;2022-12-10T10:17:49;5.53;;;3.37;;
56794;SDS011;42678;59.400;18.410;2022-12-10T10:20:18;4.17;;;2.60;;
56794;SDS011;42678;59.400;18.410;2022-12-10T10:22:44;5.17;;;3.97;;
56794;SDS011;42678;59.400;18.410;2022-12-10T10:25:13;6.43;;;3.33;;
56794;SDS011;42678;59.400;18.410;2022-12-10T10:27:40;7.50;;;4.60;;
56794;SDS011;42678;59.400;18.410;2022-12-10T10:30:06;6.03;;;3.60;;
56794;SDS011;42678;59.400;18.410;2022-12-10T10:35:00;7.20;;;3.23;;
56794;SDS011;42678;59.400;18.410;2022-12-10T10:37:27;5.93;;;3.60;;
56794;SDS011;42678;59.400;18.410;2022-12-10T10:39:53;7.27;;;4.20;;
56794;SDS011;42678;59.400;18.410;2022-12-10T10:42:42;5.57;;;3.23;;
56794;SDS011;42678;59.400;18.410;2022-12-10T10:45:33;4.77;;;3.40;;
56794;SDS011;42678;59.400;18.410;2022-12-10T10:50:23;4.90;;;2.90;;
56794;SDS011;42678;59.400;18.410;2022-12-10T10:52:49;4.20;;;3.20;;
56794;SDS011;42678;59.400;18.410;2022-12-10T10:55:31;6.00;;;3.10;;
56794;SDS011;42678;59.400;18.410;2022-12-10T10:57:59;4.38;;;3.13;;
56794;SDS011;42678;59.400;18.410;2022-12-10T11:00:25;5.80;;;3.67;;
56794;SDS011;42678;59.400;18.410;2022-12-10T11:02:52;5.23;;;2.73;;
56794;SDS011;42678;59.400;18.410;2022-12-10T11:05:22;4.67;;;2.87;;
56794;SDS011;42678;59.400;18.410;2022-12-10T11:07:56;4.43;;;3.03;;
56794;SDS011;42678;59.400;18.410;2022-12-10T11:10:23;4.90;;;3.00;;
56794;SDS011;42678;59.400;18.410;2022-12-10T11:13:00;7.20;;;3.97;;
56794;SDS011;42678;59.400;18.410;2022-12-10T11:15:40;5.37;;;3.20;;
56794;SDS011;42678;59.400;18.410;2022-12-10T11:23:19;7.70;;;3.30;;
56794;SDS011;42678;59.400;18.410;2022-12-10T11:25:58;6.80;;;3.97;;
56794;SDS011;42678;59.400;18.410;2022-12-10T11:28:31;4.40;;;2.90;;
56794;SDS011;42678;59.400;18.410;2022-12-10T11:31:05;4.50;;;3.00;;
56794;SDS011;42678;59.400;18.410;2022-12-10T11:38:35;5.83;;;3.50;;
56794;SDS011;42678;59.400;18.410;2022-12-10T11:44:06;8.68;;;3.25;;
56794;SDS011;42678;59.400;18.410;2022-12-10T11:54:52;6.60;;;3.13;;
56794;SDS011;42678;59.400;18.410;2022-12-10T11:57:31;5.88;;;3.53;;
56794;SDS011;42678;59.400;18.410;2022-12-10T12:00:12;4.53;;;2.63;;
56794;SDS011;42678;59.400;18.410;2022-12-10T12:10:34;4.90;;;2.80;;
56794;SDS011;42678;59.400;18.410;2022-12-10T12:13:04;2.87;;;2.17;;
56794;SDS011;42678;59.400;18.410;2022-12-10T12:18:04;4.80;;;2.70;;
56794;SDS011;42678;59.400;18.410;2022-12-10T12:20:37;3.67;;;2.50;;
56794;SDS011;42678;59.400;18.410;2022-12-10T12:25:39;5.85;;;3.10;;
56794;SDS011;42678;59.400;18.410;2022-12-10T12:28:14;6.53;;;3.20;;
56794;SDS011;42678;59.400;18.410;2022-12-10T12:30:43;8.37;;;3.13;;
56794;SDS011;42678;59.400;18.410;2022-12-10T12:33:16;8.23;;;3.30;;
56794;SDS011;42678;59.400;18.410;2022-12-10T12:35:47;5.70;;;3.27;;
56794;SDS011;42678;59.400;18.410;2022-12-10T12:40:55;5.73;;;3.27;;
56794;SDS011;42678;59.400;18.410;2022-12-10T12:44:07;7.47;;;3.40;;
56794;SDS011;42678;59.400;18.410;2022-12-10T12:46:16;6.40;;;3.17;;
56794;SDS011;42678;59.400;18.410;2022-12-10T12:51:19;6.17;;;2.70;;
56794;SDS011;42678;59.400;18.410;2022-12-10T12:53:46;7.47;;;3.03;;
56794;SDS011;42678;59.400;18.410;2022-12-10T12:59:02;5.53;;;2.53;;
56794;SDS011;42678;59.400;18.410;2022-12-10T13:04:00;5.30;;;3.00;;
56794;SDS011;42678;59.400;18.410;2022-12-10T13:06:34;5.10;;;2.70;;
56794;SDS011;42678;59.400;18.410;2022-12-10T13:11:38;4.63;;;2.73;;
56794;SDS011;42678;59.400;18.410;2022-12-10T13:22:06;4.83;;;2.80;;
56794;SDS011;42678;59.400;18.410;2022-12-10T13:32:15;5.67;;;2.97;;
56794;SDS011;42678;59.400;18.410;2022-12-10T13:34:41;6.33;;;2.80;;
56794;SDS011;42678;59.400;18.410;2022-12-10T13:39:37;5.47;;;3.40;;
56794;SDS011;42678;59.400;18.410;2022-12-10T13:50:03;4.70;;;2.97;;
56794;SDS011;42678;59.400;18.410;2022-12-10T14:03:22;4.90;;;2.47;;
56794;SDS011;42678;59.400;18.410;2022-12-10T14:08:22;4.37;;;2.90;;
56794;SDS011;42678;59.400;18.410;2022-12-10T14:10:48;5.97;;;2.77;;
56794;SDS011;42678;59.400;18.410;2022-12-10T14:13:15;4.13;;;2.10;;
56794;SDS011;42678;59.400;18.410;2022-12-10T14:15:41;5.57;;;2.43;;
56794;SDS011;42678;59.400;18.410;2022-12-10T14:18:12;5.33;;;2.47;;
56794;SDS011;42678;59.400;18.410;2022-12-10T14:20:39;5.63;;;2.37;;
56794;SDS011;42678;59.400;18.410;2022-12-10T14:23:20;9.07;;;3.60;;
56794;SDS011;42678;59.400;18.410;2022-12-10T14:25:58;5.10;;;2.30;;
56794;SDS011;42678;59.400;18.410;2022-12-10T14:28:24;4.10;;;2.50;;
56794;SDS011;42678;59.400;18.410;2022-12-10T14:30:49;4.63;;;2.37;;
56794;SDS011;42678;59.400;18.410;2022-12-10T14:33:17;5.60;;;2.20;;
56794;SDS011;42678;59.400;18.410;2022-12-10T14:35:46;4.93;;;2.27;;
56794;SDS011;42678;59.400;18.410;2022-12-10T14:38:17;4.53;;;2.40;;
56794;SDS011;42678;59.400;18.410;2022-12-10T14:40:44;5.33;;;3.00;;
56794;SDS011;42678;59.400;18.410;2022-12-10T14:43:17;4.10;;;2.20;;
56794;SDS011;42678;59.400;18.410;2022-12-10T14:45:45;4.17;;;2.40;;
56794;SDS011;42678;59.400;18.410;2022-12-10T14:48:13;4.73;;;2.73;;
56794;SDS011;42678;59.400;18.410;2022-12-10T14:50:41;4.93;;;2.10;;
56794;SDS011;42678;59.400;18.410;2022-12-10T14:53:11;6.60;;;2.33;;
56794;SDS011;42678;59.400;18.410;2022-12-10T14:55:38;3.47;;;2.27;;
56794;SDS011;42678;59.400;18.410;2022-12-10T14:58:03;2.57;;;1.90;;
56794;SDS011;42678;59.400;18.410;2022-12-10T15:00:30;3.77;;;2.30;;
56794;SDS011;42678;59.400;18.410;2022-12-10T15:02:56;4.23;;;1.90;;
56794;SDS011;42678;59.400;18.410;2022-12-10T15:05:32;3.73;;;1.97;;
56794;SDS011;42678;59.400;18.410;2022-12-10T15:08:01;5.67;;;2.23;;
56794;SDS011;42678;59.400;18.410;2022-12-10T15:10:32;4.97;;;2.30;;
56794;SDS011;42678;59.400;18.410;2022-12-10T15:12:58;5.20;;;2.47;;
56794;SDS011;42678;59.400;18.410;2022-12-10T15:15:37;4.20;;;1.97;;
56794;SDS011;42678;59.400;18.410;2022-12-10T15:20:52;3.03;;;2.07;;
56794;SDS011;42678;59.400;18.410;2022-12-10T15:25:46;3.23;;;1.80;;
56794;SDS011;42678;59.400;18.410;2022-12-10T15:28:28;2.73;;;1.97;;
56794;SDS011;42678;59.400;18.410;2022-12-10T15:30:57;4.23;;;2.43;;
56794;SDS011;42678;59.400;18.410;2022-12-10T15:35:49;2.90;;;1.80;;
56794;SDS011;42678;59.400;18.410;2022-12-10T15:38:14;3.27;;;2.03;;
56794;SDS011;42678;59.400;18.410;2022-12-10T15:40:41;5.13;;;2.27;;
56794;SDS011;42678;59.400;18.410;2022-12-10T15:43:39;3.00;;;1.90;;
56794;SDS011;42678;59.400;18.410;2022-12-10T15:45:59;4.27;;;2.20;;
56794;SDS011;42678;59.400;18.410;2022-12-10T15:48:26;3.47;;;2.10;;
56794;SDS011;42678;59.400;18.410;2022-12-10T15:50:53;3.63;;;2.10;;
56794;SDS011;42678;59.400;18.410;2022-12-10T15:53:28;4.03;;;2.00;;
56794;SDS011;42678;59.400;18.410;2022-12-10T15:56:00;5.37;;;2.60;;
56794;SDS011;42678;59.400;18.410;2022-12-10T15:58:25;3.73;;;2.67;;
56794;SDS011;42678;59.400;18.410;2022-12-10T16:00:51;3.90;;;2.33;;
56794;SDS011;42678;59.400;18.410;2022-12-10T16:03:16;4.93;;;2.33;;
56794;SDS011;42678;59.400;18.410;2022-12-10T16:05:44;7.00;;;2.80;;
56794;SDS011;42678;59.400;18.410;2022-12-10T16:10:37;3.37;;;2.37;;
56794;SDS011;42678;59.400;18.410;2022-12-10T16:13:05;3.70;;;2.33;;
56794;SDS011;42678;59.400;18.410;2022-12-10T16:15:35;4.77;;;2.10;;
56794;SDS011;42678;59.400;18.410;2022-12-10T16:18:03;4.00;;;2.33;;
56794;SDS011;42678;59.400;18.410;2022-12-10T16:20:29;2.53;;;1.77;;
56794;SDS011;42678;59.400;18.410;2022-12-10T16:22:57;4.30;;;2.03;;
56794;SDS011;42678;59.400;18.410;2022-12-10T16:25:23;5.23;;;1.93;;
56794;SDS011;42678;59.400;18.410;2022-12-10T16:27:49;4.57;;;2.40;;
56794;SDS011;42678;59.400;18.410;2022-12-10T16:30:23;3.93;;;2.43;;
56794;SDS011;42678;59.400;18.410;2022-12-10T16:32:49;3.57;;;1.93;;
56794;SDS011;42678;59.400;18.410;2022-12-10T16:35:14;5.47;;;2.97;;
56794;SDS011;42678;59.400;18.410;2022-12-10T16:37:43;4.53;;;2.37;;
56794;SDS011;42678;59.400;18.410;2022-12-10T16:40:10;3.03;;;1.63;;
56794;SDS011;42678;59.400;18.410;2022-12-10T16:42:36;6.70;;;2.20;;
56794;SDS011;42678;59.400;18.410;2022-12-10T16:45:01;5.40;;;2.77;;
56794;SDS011;42678;59.400;18.410;2022-12-10T16:47:26;3.77;;;2.07;;